Impacts METAR Board
IDs:

KTPL - Temple/Miller Rgnl, TX, US

Updated at: 0300 UTC 06 Dec 2019
Potential Impact None Slight Moderate High
Time 05/15Z 05/16Z 05/17Z 05/18Z 05/19Z 05/20Z 05/21Z 05/22Z 05/23Z 06/00Z 06/01Z 06/02Z 06/03Z
Temp56 60 66 69 69 71 71 72 70 68 66 66 64
Dewpt50 54 57 60 60 60 61 60 59 59 59 59 60
Altim30.04 30.04 30.03 30.00 29.96 29.92 29.90 29.91 29.91 29.91 29.92 29.94 29.96
VIS10 10 10 10 10 10 10 10 10 10 10 10 10
CIG-- 13 -- 19 -- -- -- -- -- -- -- -- --
CoverCLRBKNSCTOVCFEWCLRCLRCLRCLRCLRCLRCLRCLR
FltCatVFRMVFRVFRMVFRVFRVFRVFRVFRVFRVFRVFRVFRVFR
WX--------------------------
WDir170170170180180170160160170170170180180
WSpd8 16 13 18 18 20 18 18 13 14 14 13 10
WGst-- -- -- 23 23 -- 24 23 -- -- -- -- --
Raw hourly METARs
KTPL 051451Z AUTO 17008KT 10SM CLR 13/10 A3004 RMK AO2 SLP167 T01330100 51012
KTPL 051551Z AUTO 17016KT 10SM SCT006 BKN013 16/12 A3004 RMK AO2 SLP165 T01560122
KTPL 051705Z AUTO 17013KT 10SM SCT017 19/14 A3003 RMK AO2
KTPL 051751Z AUTO 18018G23KT 10SM OVC019 21/16 A3000 RMK AO2 SLP154 T02060156 10206 20083 58013
KTPL 051851Z AUTO 18018G23KT 10SM FEW019 21/16 A2996 RMK AO2 PK WND 17026/1752 SLP139 T02060156
KTPL 051951Z AUTO 17020KT 10SM CLR 22/16 A2992 RMK AO2 PK WND 17026/1945 SLP125 T02170156
KTPL 052051Z AUTO 16018G24KT 10SM CLR 22/16 A2990 RMK AO2 SLP121 T02170161 56033
KTPL 052151Z AUTO 16018G23KT 10SM CLR 22/16 A2991 RMK AO2 PK WND 16026/2111 SLP120 T02220156
KTPL 052251Z AUTO 17013KT 10SM CLR 21/15 A2991 RMK AO2 SLP123 T02110150
KTPL 052351Z AUTO 17014KT 10SM CLR 20/15 A2991 RMK AO2 SLP122 T02000150 10222 20200 52003
KTPL 060051Z AUTO 17014KT 10SM CLR 19/15 A2992 RMK AO2 SLP126 T01890150
KTPL 060151Z AUTO 18013KT 10SM CLR 19/15 A2994 RMK AO2 SLP132 T01890150
KTPL 060251Z AUTO 18010KT 10SM CLR 18/16 A2996 RMK AO2 SLP138 T01780156 53014